sensor_id;sensor_type;location;lat;lon;timestamp;temperature;humidity
67133;HTU21D;54052;53.542;49.408;2022-07-09T00:00:27;19.41;81.05
67133;HTU21D;54052;53.542;49.408;2022-07-09T00:02:53;19.41;80.71
67133;HTU21D;54052;53.542;49.408;2022-07-09T00:05:20;19.38;81.09
67133;HTU21D;54052;53.542;49.408;2022-07-09T00:07:46;19.35;81.27
67133;HTU21D;54052;53.542;49.408;2022-07-09T00:10:13;19.33;80.81
67133;HTU21D;54052;53.542;49.408;2022-07-09T00:12:39;19.31;80.95
67133;HTU21D;54052;53.542;49.408;2022-07-09T00:15:06;19.29;80.72
67133;HTU21D;54052;53.542;49.408;2022-07-09T00:17:32;19.29;80.72
67133;HTU21D;54052;53.542;49.408;2022-07-09T00:19:59;19.27;80.65
67133;HTU21D;54052;53.542;49.408;2022-07-09T00:22:27;19.26;80.58
67133;HTU21D;54052;53.542;49.408;2022-07-09T00:24:54;19.26;80.72
67133;HTU21D;54052;53.542;49.408;2022-07-09T00:27:20;19.25;81.21
67133;HTU21D;54052;53.542;49.408;2022-07-09T00:29:46;19.25;81.42
67133;HTU21D;54052;53.542;49.408;2022-07-09T00:32:13;19.25;81.12
67133;HTU21D;54052;53.542;49.408;2022-07-09T00:34:39;19.25;81.14
67133;HTU21D;54052;53.542;49.408;2022-07-09T00:37:06;19.25;80.93
67133;HTU21D;54052;53.542;49.408;2022-07-09T00:39:32;19.27;80.68
67133;HTU21D;54052;53.542;49.408;2022-07-09T00:42:05;19.30;80.62
67133;HTU21D;54052;53.542;49.408;2022-07-09T00:44:32;19.28;80.38
67133;HTU21D;54052;53.542;49.408;2022-07-09T00:46:58;19.13;80.43
67133;HTU21D;54052;53.542;49.408;2022-07-09T00:49:28;19.11;81.18
67133;HTU21D;54052;53.542;49.408;2022-07-09T00:51:55;19.12;80.20
67133;HTU21D;54052;53.542;49.408;2022-07-09T00:54:23;19.23;79.88
67133;HTU21D;54052;53.542;49.408;2022-07-09T00:56:51;19.25;80.61
67133;HTU21D;54052;53.542;49.408;2022-07-09T00:59:20;19.22;81.08
67133;HTU21D;54052;53.542;49.408;2022-07-09T01:01:49;19.23;80.81
67133;HTU21D;54052;53.542;49.408;2022-07-09T01:04:16;19.29;80.80
67133;HTU21D;54052;53.542;49.408;2022-07-09T01:06:42;19.30;80.54
67133;HTU21D;54052;53.542;49.408;2022-07-09T01:09:09;19.35;80.56
67133;HTU21D;54052;53.542;49.408;2022-07-09T01:11:36;19.43;80.40
67133;HTU21D;54052;53.542;49.408;2022-07-09T01:14:02;19.50;80.44
67133;HTU21D;54052;53.542;49.408;2022-07-09T01:16:33;19.58;80.27
67133;HTU21D;54052;53.542;49.408;2022-07-09T01:19:00;19.67;80.49
67133;HTU21D;54052;53.542;49.408;2022-07-09T01:21:26;19.74;80.71
67133;HTU21D;54052;53.542;49.408;2022-07-09T01:23:53;19.84;80.71
67133;HTU21D;54052;53.542;49.408;2022-07-09T01:26:19;19.95;80.35
67133;HTU21D;54052;53.542;49.408;2022-07-09T01:28:47;20.02;79.82
67133;HTU21D;54052;53.542;49.408;2022-07-09T01:31:14;20.12;79.34
67133;HTU21D;54052;53.542;49.408;2022-07-09T01:33:40;20.21;79.48
67133;HTU21D;54052;53.542;49.408;2022-07-09T01:36:07;20.28;79.72
67133;HTU21D;54052;53.542;49.408;2022-07-09T01:38:34;20.34;79.42
67133;HTU21D;54052;53.542;49.408;2022-07-09T01:41:03;20.44;79.33
67133;HTU21D;54052;53.542;49.408;2022-07-09T01:43:30;20.54;78.98
67133;HTU21D;54052;53.542;49.408;2022-07-09T01:45:59;20.63;78.59
67133;HTU21D;54052;53.542;49.408;2022-07-09T01:48:27;20.73;78.47
67133;HTU21D;54052;53.542;49.408;2022-07-09T01:50:54;20.84;77.84
67133;HTU21D;54052;53.542;49.408;2022-07-09T01:53:21;20.94;77.54
67133;HTU21D;54052;53.542;49.408;2022-07-09T01:55:47;21.05;77.12
67133;HTU21D;54052;53.542;49.408;2022-07-09T01:58:13;21.13;77.71
67133;HTU21D;54052;53.542;49.408;2022-07-09T02:00:40;21.20;77.72
67133;HTU21D;54052;53.542;49.408;2022-07-09T02:03:06;21.29;77.19
67133;HTU21D;54052;53.542;49.408;2022-07-09T02:05:33;21.38;77.27
67133;HTU21D;54052;53.542;49.408;2022-07-09T02:07:59;21.47;76.84
67133;HTU21D;54052;53.542;49.408;2022-07-09T02:10:25;21.58;76.81
67133;HTU21D;54052;53.542;49.408;2022-07-09T02:12:52;21.68;76.33
67133;HTU21D;54052;53.542;49.408;2022-07-09T02:15:18;21.81;75.17
67133;HTU21D;54052;53.542;49.408;2022-07-09T02:17:45;21.94;74.64
67133;HTU21D;54052;53.542;49.408;2022-07-09T02:20:11;22.09;74.31
67133;HTU21D;54052;53.542;49.408;2022-07-09T02:22:37;22.23;73.46
67133;HTU21D;54052;53.542;49.408;2022-07-09T02:25:05;22.36;71.90
67133;HTU21D;54052;53.542;49.408;2022-07-09T02:27:31;22.50;70.87
67133;HTU21D;54052;53.542;49.408;2022-07-09T02:29:58;22.64;70.86
67133;HTU21D;54052;53.542;49.408;2022-07-09T02:32:24;22.79;69.37
67133;HTU21D;54052;53.542;49.408;2022-07-09T02:34:50;22.90;69.35
67133;HTU21D;54052;53.542;49.408;2022-07-09T02:37:16;23.07;69.00
67133;HTU21D;54052;53.542;49.408;2022-07-09T02:39:43;23.23;68.76
67133;HTU21D;54052;53.542;49.408;2022-07-09T02:42:09;23.36;66.99
67133;HTU21D;54052;53.542;49.408;2022-07-09T02:44:35;23.52;66.20
67133;HTU21D;54052;53.542;49.408;2022-07-09T02:47:01;23.68;65.68
67133;HTU21D;54052;53.542;49.408;2022-07-09T02:49:28;23.83;63.79
67133;HTU21D;54052;53.542;49.408;2022-07-09T02:51:55;24.00;62.87
67133;HTU21D;54052;53.542;49.408;2022-07-09T02:54:23;24.17;59.62
67133;HTU21D;54052;53.542;49.408;2022-07-09T02:56:49;24.34;59.14
67133;HTU21D;54052;53.542;49.408;2022-07-09T02:59:16;24.56;58.32
67133;HTU21D;54052;53.542;49.408;2022-07-09T03:01:43;25.38;55.29
67133;HTU21D;54052;53.542;49.408;2022-07-09T03:04:09;28.48;46.30
67133;HTU21D;54052;53.542;49.408;2022-07-09T03:06:35;31.37;37.27
67133;HTU21D;54052;53.542;49.408;2022-07-09T03:09:03;32.97;33.71
67133;HTU21D;54052;53.542;49.408;2022-07-09T03:11:29;34.79;31.59
67133;HTU21D;54052;53.542;49.408;2022-07-09T03:13:55;36.00;28.84
67133;HTU21D;54052;53.542;49.408;2022-07-09T03:16:21;36.73;27.10
67133;HTU21D;54052;53.542;49.408;2022-07-09T03:18:48;37.66;27.00
67133;HTU21D;54052;53.542;49.408;2022-07-09T03:21:14;38.77;24.24
67133;HTU21D;54052;53.542;49.408;2022-07-09T03:23:40;39.37;23.29
67133;HTU21D;54052;53.542;49.408;2022-07-09T03:26:06;40.01;22.40
67133;HTU21D;54052;53.542;49.408;2022-07-09T03:28:33;40.29;21.64
67133;HTU21D;54052;53.542;49.408;2022-07-09T03:31:00;40.51;19.77
67133;HTU21D;54052;53.542;49.408;2022-07-09T03:33:26;40.82;19.98
67133;HTU21D;54052;53.542;49.408;2022-07-09T03:35:54;41.37;18.25
67133;HTU21D;54052;53.542;49.408;2022-07-09T03:38:21;41.84;17.80
67133;HTU21D;54052;53.542;49.408;2022-07-09T03:40:48;42.14;17.77
67133;HTU21D;54052;53.542;49.408;2022-07-09T03:43:14;42.45;17.64
67133;HTU21D;54052;53.542;49.408;2022-07-09T03:45:40;42.65;17.12
67133;HTU21D;54052;53.542;49.408;2022-07-09T03:48:07;42.93;16.77
67133;HTU21D;54052;53.542;49.408;2022-07-09T03:50:33;43.18;15.95
67133;HTU21D;54052;53.542;49.408;2022-07-09T03:52:59;43.17;16.29
67133;HTU21D;54052;53.542;49.408;2022-07-09T03:55:26;43.07;15.64
67133;HTU21D;54052;53.542;49.408;2022-07-09T03:57:52;43.19;15.90
67133;HTU21D;54052;53.542;49.408;2022-07-09T04:00:18;43.59;14.89
67133;HTU21D;54052;53.542;49.408;2022-07-09T04:02:44;43.54;14.78
67133;HTU21D;54052;53.542;49.408;2022-07-09T04:05:11;43.37;14.32
67133;HTU21D;54052;53.542;49.408;2022-07-09T04:07:37;43.43;15.65
67133;HTU21D;54052;53.542;49.408;2022-07-09T04:10:14;43.22;15.35
67133;HTU21D;54052;53.542;49.408;2022-07-09T04:12:40;43.90;15.11
67133;HTU21D;54052;53.542;49.408;2022-07-09T04:15:07;43.98;14.57
67133;HTU21D;54052;53.542;49.408;2022-07-09T04:17:33;44.22;14.64
67133;HTU21D;54052;53.542;49.408;2022-07-09T04:20:01;44.70;13.94
67133;HTU21D;54052;53.542;49.408;2022-07-09T04:22:27;45.07;13.50
67133;HTU21D;54052;53.542;49.408;2022-07-09T04:24:53;44.40;14.53
67133;HTU21D;54052;53.542;49.408;2022-07-09T04:27:19;43.83;15.45
67133;HTU21D;54052;53.542;49.408;2022-07-09T04:29:45;43.91;15.28
67133;HTU21D;54052;53.542;49.408;2022-07-09T04:32:12;44.28;15.35
67133;HTU21D;54052;53.542;49.408;2022-07-09T04:34:38;45.02;14.12
67133;HTU21D;54052;53.542;49.408;2022-07-09T04:37:07;45.60;13.52
67133;HTU21D;54052;53.542;49.408;2022-07-09T04:39:33;45.76;13.12
67133;HTU21D;54052;53.542;49.408;2022-07-09T04:41:59;46.01;13.27
67133;HTU21D;54052;53.542;49.408;2022-07-09T04:44:26;46.14;12.36
67133;HTU21D;54052;53.542;49.408;2022-07-09T04:46:52;46.34;12.59
67133;HTU21D;54052;53.542;49.408;2022-07-09T04:49:18;46.38;12.48
67133;HTU21D;54052;53.542;49.408;2022-07-09T04:51:44;46.35;12.26
67133;HTU21D;54052;53.542;49.408;2022-07-09T04:54:11;46.78;11.97
67133;HTU21D;54052;53.542;49.408;2022-07-09T04:56:37;47.07;11.76
67133;HTU21D;54052;53.542;49.408;2022-07-09T04:59:03;47.13;11.62
67133;HTU21D;54052;53.542;49.408;2022-07-09T05:01:30;47.16;11.89
67133;HTU21D;54052;53.542;49.408;2022-07-09T05:03:56;47.21;11.77
67133;HTU21D;54052;53.542;49.408;2022-07-09T05:06:23;47.49;11.56
67133;HTU21D;54052;53.542;49.408;2022-07-09T05:08:49;47.27;11.22
67133;HTU21D;54052;53.542;49.408;2022-07-09T05:11:16;47.16;11.57
67133;HTU21D;54052;53.542;49.408;2022-07-09T05:13:42;47.50;11.65
67133;HTU21D;54052;53.542;49.408;2022-07-09T05:16:08;46.97;11.89
67133;HTU21D;54052;53.542;49.408;2022-07-09T05:18:35;47.10;12.43
67133;HTU21D;54052;53.542;49.408;2022-07-09T05:21:01;47.55;12.07
67133;HTU21D;54052;53.542;49.408;2022-07-09T05:23:27;47.55;11.52
67133;HTU21D;54052;53.542;49.408;2022-07-09T05:25:54;47.29;12.31
67133;HTU21D;54052;53.542;49.408;2022-07-09T05:28:20;47.54;11.62
67133;HTU21D;54052;53.542;49.408;2022-07-09T05:30:47;47.55;11.48
67133;HTU21D;54052;53.542;49.408;2022-07-09T05:33:13;47.24;12.01
67133;HTU21D;54052;53.542;49.408;2022-07-09T05:35:39;47.62;11.75
67133;HTU21D;54052;53.542;49.408;2022-07-09T05:38:06;48.05;11.81
67133;HTU21D;54052;53.542;49.408;2022-07-09T05:40:32;48.08;11.54
67133;HTU21D;54052;53.542;49.408;2022-07-09T05:42:59;47.50;11.88
67133;HTU21D;54052;53.542;49.408;2022-07-09T05:45:25;47.04;12.10
67133;HTU21D;54052;53.542;49.408;2022-07-09T05:47:51;46.92;12.66
67133;HTU21D;54052;53.542;49.408;2022-07-09T05:50:17;47.56;11.88
67133;HTU21D;54052;53.542;49.408;2022-07-09T05:52:43;47.78;11.64
67133;HTU21D;54052;53.542;49.408;2022-07-09T05:55:10;44.66;15.01
67133;HTU21D;54052;53.542;49.408;2022-07-09T05:57:36;40.65;19.01
67133;HTU21D;54052;53.542;49.408;2022-07-09T06:00:04;37.81;23.21
67133;HTU21D;54052;53.542;49.408;2022-07-09T06:02:45;36.42;25.96
67133;HTU21D;54052;53.542;49.408;2022-07-09T06:05:12;35.57;27.03
67133;HTU21D;54052;53.542;49.408;2022-07-09T06:07:39;34.30;30.33
67133;HTU21D;54052;53.542;49.408;2022-07-09T06:10:11;33.78;30.67
67133;HTU21D;54052;53.542;49.408;2022-07-09T06:12:39;33.28;30.86
67133;HTU21D;54052;53.542;49.408;2022-07-09T06:15:06;33.16;30.77
67133;HTU21D;54052;53.542;49.408;2022-07-09T06:17:32;33.15;31.86
67133;HTU21D;54052;53.542;49.408;2022-07-09T06:19:58;32.72;31.41
67133;HTU21D;54052;53.542;49.408;2022-07-09T06:22:25;32.63;31.48
67133;HTU21D;54052;53.542;49.408;2022-07-09T06:24:51;32.48;31.22
67133;HTU21D;54052;53.542;49.408;2022-07-09T06:27:17;32.09;32.49
67133;HTU21D;54052;53.542;49.408;2022-07-09T06:29:43;31.76;33.47
67133;HTU21D;54052;53.542;49.408;2022-07-09T06:32:10;31.87;33.65
67133;HTU21D;54052;53.542;49.408;2022-07-09T06:34:36;32.07;33.39
67133;HTU21D;54052;53.542;49.408;2022-07-09T06:37:02;31.97;33.41
67133;HTU21D;54052;53.542;49.408;2022-07-09T06:39:28;31.90;34.43
67133;HTU21D;54052;53.542;49.408;2022-07-09T06:42:17;31.68;34.59
67133;HTU21D;54052;53.542;49.408;2022-07-09T06:44:44;31.76;35.44
67133;HTU21D;54052;53.542;49.408;2022-07-09T06:47:11;31.85;33.97
67133;HTU21D;54052;53.542;49.408;2022-07-09T06:49:37;32.00;34.12
67133;HTU21D;54052;53.542;49.408;2022-07-09T06:52:04;31.88;35.86
67133;HTU21D;54052;53.542;49.408;2022-07-09T06:54:30;31.65;34.95
67133;HTU21D;54052;53.542;49.408;2022-07-09T06:56:57;31.55;35.12
67133;HTU21D;54052;53.542;49.408;2022-07-09T06:59:24;31.51;34.36
67133;HTU21D;54052;53.542;49.408;2022-07-09T07:01:51;31.52;34.25
67133;HTU21D;54052;53.542;49.408;2022-07-09T07:04:17;31.65;34.73
67133;HTU21D;54052;53.542;49.408;2022-07-09T07:06:44;31.65;34.22
67133;HTU21D;54052;53.542;49.408;2022-07-09T07:09:12;31.56;33.99
67133;HTU21D;54052;53.542;49.408;2022-07-09T07:11:38;31.60;34.06
67133;HTU21D;54052;53.542;49.408;2022-07-09T07:14:05;31.64;33.71
67133;HTU21D;54052;53.542;49.408;2022-07-09T07:16:31;31.66;33.27
67133;HTU21D;54052;53.542;49.408;2022-07-09T07:18:58;31.69;33.73
67133;HTU21D;54052;53.542;49.408;2022-07-09T07:21:24;31.83;34.78
67133;HTU21D;54052;53.542;49.408;2022-07-09T07:23:50;31.86;33.47
67133;HTU21D;54052;53.542;49.408;2022-07-09T07:26:17;31.90;33.83
67133;HTU21D;54052;53.542;49.408;2022-07-09T07:28:44;31.81;33.87
67133;HTU21D;54052;53.542;49.408;2022-07-09T07:31:10;31.81;33.88
67133;HTU21D;54052;53.542;49.408;2022-07-09T07:33:36;31.82;33.52
67133;HTU21D;54052;53.542;49.408;2022-07-09T07:36:04;31.72;33.45
67133;HTU21D;54052;53.542;49.408;2022-07-09T07:38:31;31.88;33.84
67133;HTU21D;54052;53.542;49.408;2022-07-09T07:40:57;32.01;34.42
67133;HTU21D;54052;53.542;49.408;2022-07-09T07:43:23;32.17;33.67
67133;HTU21D;54052;53.542;49.408;2022-07-09T07:45:49;32.33;33.82
67133;HTU21D;54052;53.542;49.408;2022-07-09T07:48:15;32.35;33.54
67133;HTU21D;54052;53.542;49.408;2022-07-09T07:51:02;32.59;33.09
67133;HTU21D;54052;53.542;49.408;2022-07-09T07:53:32;32.49;33.11
67133;HTU21D;54052;53.542;49.408;2022-07-09T07:56:05;32.37;32.95
67133;HTU21D;54052;53.542;49.408;2022-07-09T07:58:32;32.35;33.34
67133;HTU21D;54052;53.542;49.408;2022-07-09T08:00:59;32.35;32.94
67133;HTU21D;54052;53.542;49.408;2022-07-09T08:03:26;32.39;32.57
67133;HTU21D;54052;53.542;49.408;2022-07-09T08:05:52;32.55;32.92
67133;HTU21D;54052;53.542;49.408;2022-07-09T08:08:18;32.72;31.77
67133;HTU21D;54052;53.542;49.408;2022-07-09T08:10:45;32.74;32.50
67133;HTU21D;54052;53.542;49.408;2022-07-09T08:13:12;32.77;31.39
67133;HTU21D;54052;53.542;49.408;2022-07-09T08:15:38;32.61;32.49
67133;HTU21D;54052;53.542;49.408;2022-07-09T08:18:05;32.62;31.66
67133;HTU21D;54052;53.542;49.408;2022-07-09T08:20:31;32.71;32.29
67133;HTU21D;54052;53.542;49.408;2022-07-09T08:22:58;32.46;33.51
67133;HTU21D;54052;53.542;49.408;2022-07-09T08:25:25;32.24;34.17
67133;HTU21D;54052;53.542;49.408;2022-07-09T08:27:51;32.38;34.11
67133;HTU21D;54052;53.542;49.408;2022-07-09T08:30:17;32.42;32.35
67133;HTU21D;54052;53.542;49.408;2022-07-09T08:32:43;32.22;32.83
67133;HTU21D;54052;53.542;49.408;2022-07-09T08:35:10;32.19;33.37
67133;HTU21D;54052;53.542;49.408;2022-07-09T08:37:37;32.11;32.90
67133;HTU21D;54052;53.542;49.408;2022-07-09T08:40:12;31.56;33.67
67133;HTU21D;54052;53.542;49.408;2022-07-09T08:42:38;30.96;34.88
67133;HTU21D;54052;53.542;49.408;2022-07-09T08:45:08;30.54;36.66
67133;HTU21D;54052;53.542;49.408;2022-07-09T08:47:36;30.59;36.20
67133;HTU21D;54052;53.542;49.408;2022-07-09T08:50:04;30.60;35.47
67133;HTU21D;54052;53.542;49.408;2022-07-09T08:52:31;30.63;35.59
67133;HTU21D;54052;53.542;49.408;2022-07-09T08:54:58;30.62;36.72
67133;HTU21D;54052;53.542;49.408;2022-07-09T08:57:24;30.61;37.91
67133;HTU21D;54052;53.542;49.408;2022-07-09T08:59:51;30.57;39.69
67133;HTU21D;54052;53.542;49.408;2022-07-09T09:02:17;30.44;38.80
67133;HTU21D;54052;53.542;49.408;2022-07-09T09:04:46;30.06;40.94
67133;HTU21D;54052;53.542;49.408;2022-07-09T09:07:16;29.51;43.63
67133;HTU21D;54052;53.542;49.408;2022-07-09T09:09:44;29.19;44.14
67133;HTU21D;54052;53.542;49.408;2022-07-09T09:12:12;28.93;44.87
67133;HTU21D;54052;53.542;49.408;2022-07-09T09:14:39;28.76;45.39
67133;HTU21D;54052;53.542;49.408;2022-07-09T09:17:07;28.80;45.68
67133;HTU21D;54052;53.542;49.408;2022-07-09T09:19:38;28.91;46.25
67133;HTU21D;54052;53.542;49.408;2022-07-09T09:22:06;28.98;46.95
67133;HTU21D;54052;53.542;49.408;2022-07-09T09:24:33;28.93;47.18
67133;HTU21D;54052;53.542;49.408;2022-07-09T09:27:01;28.99;47.70
67133;HTU21D;54052;53.542;49.408;2022-07-09T09:29:27;28.71;51.67
67133;HTU21D;54052;53.542;49.408;2022-07-09T09:31:54;28.08;52.05
67133;HTU21D;54052;53.542;49.408;2022-07-09T09:34:21;27.59;54.76
67133;HTU21D;54052;53.542;49.408;2022-07-09T09:36:50;27.21;54.65
67133;HTU21D;54052;53.542;49.408;2022-07-09T09:39:23;27.07;55.68
67133;HTU21D;54052;53.542;49.408;2022-07-09T09:41:52;27.00;55.39
67133;HTU21D;54052;53.542;49.408;2022-07-09T09:44:23;26.94;56.41
67133;HTU21D;54052;53.542;49.408;2022-07-09T09:46:52;27.00;56.13
67133;HTU21D;54052;53.542;49.408;2022-07-09T09:49:19;26.94;57.55
67133;HTU21D;54052;53.542;49.408;2022-07-09T09:54:22;26.91;62.77
67133;HTU21D;54052;53.542;49.408;2022-07-09T09:56:50;26.89;61.94
67133;HTU21D;54052;53.542;49.408;2022-07-09T09:59:16;26.90;60.75
67133;HTU21D;54052;53.542;49.408;2022-07-09T10:01:44;26.89;60.49
67133;HTU21D;54052;53.542;49.408;2022-07-09T10:04:12;26.89;57.23
67133;HTU21D;54052;53.542;49.408;2022-07-09T10:06:39;26.81;55.42
67133;HTU21D;54052;53.542;49.408;2022-07-09T10:09:07;26.75;54.43
67133;HTU21D;54052;53.542;49.408;2022-07-09T10:11:47;26.82;54.04
67133;HTU21D;54052;53.542;49.408;2022-07-09T10:16:49;27.04;53.42
67133;HTU21D;54052;53.542;49.408;2022-07-09T10:19:26;27.14;53.95
67133;HTU21D;54052;53.542;49.408;2022-07-09T10:21:54;27.30;53.04
67133;HTU21D;54052;53.542;49.408;2022-07-09T10:24:29;27.46;52.58
67133;HTU21D;54052;53.542;49.408;2022-07-09T10:27:06;27.65;53.30
67133;HTU21D;54052;53.542;49.408;2022-07-09T10:29:34;27.74;51.95
67133;HTU21D;54052;53.542;49.408;2022-07-09T10:32:01;27.89;54.15
67133;HTU21D;54052;53.542;49.408;2022-07-09T10:37:44;28.04;52.97
67133;HTU21D;54052;53.542;49.408;2022-07-09T10:40:15;27.95;53.92
67133;HTU21D;54052;53.542;49.408;2022-07-09T10:42:58;27.94;54.34
67133;HTU21D;54052;53.542;49.408;2022-07-09T10:45:26;27.94;52.69
67133;HTU21D;54052;53.542;49.408;2022-07-09T10:47:58;27.85;53.49
67133;HTU21D;54052;53.542;49.408;2022-07-09T10:50:26;27.84;52.36
67133;HTU21D;54052;53.542;49.408;2022-07-09T10:52:53;27.80;52.53
67133;HTU21D;54052;53.542;49.408;2022-07-09T10:55:25;27.76;51.71
67133;HTU21D;54052;53.542;49.408;2022-07-09T10:57:52;27.70;51.79
67133;HTU21D;54052;53.542;49.408;2022-07-09T11:00:23;27.61;54.65
67133;HTU21D;54052;53.542;49.408;2022-07-09T11:02:51;27.49;54.28
67133;HTU21D;54052;53.542;49.408;2022-07-09T11:05:18;27.36;54.27
67133;HTU21D;54052;53.542;49.408;2022-07-09T11:07:58;27.30;57.37
67133;HTU21D;54052;53.542;49.408;2022-07-09T11:10:26;27.21;58.90
67133;HTU21D;54052;53.542;49.408;2022-07-09T11:12:55;27.17;59.73
67133;HTU21D;54052;53.542;49.408;2022-07-09T11:15:22;27.11;59.03
67133;HTU21D;54052;53.542;49.408;2022-07-09T11:17:56;27.01;56.37
67133;HTU21D;54052;53.542;49.408;2022-07-09T11:20:23;26.99;55.54
67133;HTU21D;54052;53.542;49.408;2022-07-09T11:22:50;26.98;56.61
67133;HTU21D;54052;53.542;49.408;2022-07-09T11:25:17;27.06;56.31
67133;HTU21D;54052;53.542;49.408;2022-07-09T11:27:43;27.09;56.07
67133;HTU21D;54052;53.542;49.408;2022-07-09T11:30:14;27.15;57.90
67133;HTU21D;54052;53.542;49.408;2022-07-09T11:32:44;27.10;58.03
67133;HTU21D;54052;53.542;49.408;2022-07-09T11:35:11;27.12;57.71
67133;HTU21D;54052;53.542;49.408;2022-07-09T11:37:38;27.15;59.42
67133;HTU21D;54052;53.542;49.408;2022-07-09T11:40:05;27.16;60.33
67133;HTU21D;54052;53.542;49.408;2022-07-09T11:42:41;27.13;60.24
67133;HTU21D;54052;53.542;49.408;2022-07-09T11:45:09;27.16;59.33
67133;HTU21D;54052;53.542;49.408;2022-07-09T11:47:36;27.16;58.29
67133;HTU21D;54052;53.542;49.408;2022-07-09T11:50:15;27.19;59.40
67133;HTU21D;54052;53.542;49.408;2022-07-09T11:52:47;27.14;62.12
67133;HTU21D;54052;53.542;49.408;2022-07-09T11:55:18;27.14;61.26
67133;HTU21D;54052;53.542;49.408;2022-07-09T11:57:53;27.12;61.95
67133;HTU21D;54052;53.542;49.408;2022-07-09T12:00:22;27.05;62.60
67133;HTU21D;54052;53.542;49.408;2022-07-09T12:02:49;27.05;62.10
67133;HTU21D;54052;53.542;49.408;2022-07-09T12:05:33;26.99;62.50
67133;HTU21D;54052;53.542;49.408;2022-07-09T12:08:04;26.94;62.70
67133;HTU21D;54052;53.542;49.408;2022-07-09T12:10:37;26.95;60.99
67133;HTU21D;54052;53.542;49.408;2022-07-09T12:13:05;27.05;61.32
67133;HTU21D;54052;53.542;49.408;2022-07-09T12:15:32;27.12;60.03
67133;HTU21D;54052;53.542;49.408;2022-07-09T12:18:00;27.13;58.00
67133;HTU21D;54052;53.542;49.408;2022-07-09T12:20:29;27.21;57.14
67133;HTU21D;54052;53.542;49.408;2022-07-09T12:22:55;27.26;57.86
67133;HTU21D;54052;53.542;49.408;2022-07-09T12:25:21;27.28;56.69
67133;HTU21D;54052;53.542;49.408;2022-07-09T12:27:48;27.38;55.03
67133;HTU21D;54052;53.542;49.408;2022-07-09T12:30:18;27.45;56.49
67133;HTU21D;54052;53.542;49.408;2022-07-09T12:32:45;27.43;55.54
67133;HTU21D;54052;53.542;49.408;2022-07-09T12:35:11;27.39;55.84
67133;HTU21D;54052;53.542;49.408;2022-07-09T12:37:38;27.40;56.23
67133;HTU21D;54052;53.542;49.408;2022-07-09T12:40:06;27.42;57.40
67133;HTU21D;54052;53.542;49.408;2022-07-09T12:42:33;27.44;56.77
67133;HTU21D;54052;53.542;49.408;2022-07-09T12:45:00;27.52;56.00
67133;HTU21D;54052;53.542;49.408;2022-07-09T12:47:26;27.58;56.48
67133;HTU21D;54052;53.542;49.408;2022-07-09T12:49:53;27.60;56.71
67133;HTU21D;54052;53.542;49.408;2022-07-09T12:52:19;27.61;53.04
67133;HTU21D;54052;53.542;49.408;2022-07-09T12:54:45;27.69;52.15
67133;HTU21D;54052;53.542;49.408;2022-07-09T12:57:12;27.59;51.77
67133;HTU21D;54052;53.542;49.408;2022-07-09T12:59:38;27.45;52.64
67133;HTU21D;54052;53.542;49.408;2022-07-09T13:02:10;27.44;53.62
67133;HTU21D;54052;53.542;49.408;2022-07-09T13:04:37;27.55;53.91
67133;HTU21D;54052;53.542;49.408;2022-07-09T13:07:12;27.63;54.01
67133;HTU21D;54052;53.542;49.408;2022-07-09T13:09:40;27.53;53.94
67133;HTU21D;54052;53.542;49.408;2022-07-09T13:12:06;27.44;54.38
67133;HTU21D;54052;53.542;49.408;2022-07-09T13:14:32;27.54;54.75
67133;HTU21D;54052;53.542;49.408;2022-07-09T13:16:59;27.60;54.95
67133;HTU21D;54052;53.542;49.408;2022-07-09T13:19:25;27.51;53.81
67133;HTU21D;54052;53.542;49.408;2022-07-09T13:21:51;27.23;55.09
67133;HTU21D;54052;53.542;49.408;2022-07-09T13:24:17;27.10;56.12
67133;HTU21D;54052;53.542;49.408;2022-07-09T13:26:44;27.11;56.52
67133;HTU21D;54052;53.542;49.408;2022-07-09T13:29:10;27.08;57.01
67133;HTU21D;54052;53.542;49.408;2022-07-09T13:31:36;26.94;57.63
67133;HTU21D;54052;53.542;49.408;2022-07-09T13:34:02;26.82;58.03
67133;HTU21D;54052;53.542;49.408;2022-07-09T13:36:29;26.79;58.57
67133;HTU21D;54052;53.542;49.408;2022-07-09T13:38:55;26.75;57.65
67133;HTU21D;54052;53.542;49.408;2022-07-09T13:41:22;26.78;57.06
67133;HTU21D;54052;53.542;49.408;2022-07-09T13:43:48;26.71;57.79
67133;HTU21D;54052;53.542;49.408;2022-07-09T13:46:15;26.82;57.96
67133;HTU21D;54052;53.542;49.408;2022-07-09T13:48:41;26.93;57.74
67133;HTU21D;54052;53.542;49.408;2022-07-09T13:51:13;27.05;57.35
67133;HTU21D;54052;53.542;49.408;2022-07-09T13:53:39;27.14;56.77
67133;HTU21D;54052;53.542;49.408;2022-07-09T13:56:07;27.23;55.80
67133;HTU21D;54052;53.542;49.408;2022-07-09T13:58:33;27.25;54.65
67133;HTU21D;54052;53.542;49.408;2022-07-09T14:01:00;27.23;54.89
67133;HTU21D;54052;53.542;49.408;2022-07-09T14:03:29;27.21;54.77
67133;HTU21D;54052;53.542;49.408;2022-07-09T14:05:55;27.19;54.41
67133;HTU21D;54052;53.542;49.408;2022-07-09T14:08:21;27.24;54.14
67133;HTU21D;54052;53.542;49.408;2022-07-09T14:10:50;27.34;53.65
67133;HTU21D;54052;53.542;49.408;2022-07-09T14:13:26;27.51;52.62
67133;HTU21D;54052;53.542;49.408;2022-07-09T14:15:56;27.68;52.14
67133;HTU21D;54052;53.542;49.408;2022-07-09T14:18:23;27.76;51.57
67133;HTU21D;54052;53.542;49.408;2022-07-09T14:20:50;27.89;51.46
67133;HTU21D;54052;53.542;49.408;2022-07-09T14:23:17;27.96;50.97
67133;HTU21D;54052;53.542;49.408;2022-07-09T14:25:44;28.08;50.68
67133;HTU21D;54052;53.542;49.408;2022-07-09T14:28:10;28.15;50.17
67133;HTU21D;54052;53.542;49.408;2022-07-09T14:30:37;28.25;50.02
67133;HTU21D;54052;53.542;49.408;2022-07-09T14:33:08;28.39;50.69
67133;HTU21D;54052;53.542;49.408;2022-07-09T14:35:46;28.57;49.63
67133;HTU21D;54052;53.542;49.408;2022-07-09T14:38:12;28.72;47.62
67133;HTU21D;54052;53.542;49.408;2022-07-09T14:40:38;28.90;47.73
67133;HTU21D;54052;53.542;49.408;2022-07-09T14:43:05;29.03;47.24
67133;HTU21D;54052;53.542;49.408;2022-07-09T14:45:32;29.20;46.22
67133;HTU21D;54052;53.542;49.408;2022-07-09T14:47:58;29.32;47.16
67133;HTU21D;54052;53.542;49.408;2022-07-09T14:50:24;29.38;46.19
67133;HTU21D;54052;53.542;49.408;2022-07-09T14:52:51;29.50;45.99
67133;HTU21D;54052;53.542;49.408;2022-07-09T14:55:17;29.56;45.37
67133;HTU21D;54052;53.542;49.408;2022-07-09T14:57:44;29.58;45.59
67133;HTU21D;54052;53.542;49.408;2022-07-09T15:00:10;29.54;45.28
67133;HTU21D;54052;53.542;49.408;2022-07-09T15:02:37;29.56;45.54
67133;HTU21D;54052;53.542;49.408;2022-07-09T15:05:03;29.50;45.34
67133;HTU21D;54052;53.542;49.408;2022-07-09T15:07:29;29.39;46.28
67133;HTU21D;54052;53.542;49.408;2022-07-09T15:09:56;29.27;45.99
67133;HTU21D;54052;53.542;49.408;2022-07-09T15:12:22;29.16;47.01